Beech Creek, Kentucky
Current Conditions -  °F | °C
As of 10:15 AM on Thursday 18 Dec 2014 (Local Time) from K2I0 Reporting Station
Overcast Overcast  
Wind Chill: 27°   Ceiling: 1300
Heat Index: 33°   Visibility: 7mi
Dew Point: 29°   Wind: 7mph
Humidity: 84%   Direction: 20°NNE
Pressure: 30.31"   Gusts: NA
Location:  37.18°N, 87.06°W
Report Text: K2I0 181615Z AUTO 02006KT 7SM BKN013 OVC046 01/M02 A3031 RMK AO2 T00081017
Loading
Personal Weather Stations






























Interactive Weather Map New forecast layout! Learn more

10-Day Weather Forecast

Advertisements
Track Severe Weather on mobile